sensor_id;sensor_type;location;lat;lon;timestamp;pressure;altitude;pressure_sealevel;temperature;humidity
10948;BME280;5526;42.070;24.752;2022-12-31T00:01:28;100035.25;;;5.56;100.00
10948;BME280;5526;42.070;24.752;2022-12-31T00:03:56;100026.97;;;5.52;100.00
10948;BME280;5526;42.070;24.752;2022-12-31T00:06:26;100026.16;;;5.52;100.00
10948;BME280;5526;42.070;24.752;2022-12-31T00:08:56;100047.13;;;5.65;100.00
10948;BME280;5526;42.070;24.752;2022-12-31T00:11:28;100068.84;;;5.78;100.00
10948;BME280;5526;42.070;24.752;2022-12-31T00:13:57;100056.75;;;5.64;100.00
10948;BME280;5526;42.070;24.752;2022-12-31T00:16:27;100058.16;;;5.67;100.00
10948;BME280;5526;42.070;24.752;2022-12-31T00:18:56;100056.94;;;5.69;100.00
10948;BME280;5526;42.070;24.752;2022-12-31T00:21:26;100050.50;;;5.59;100.00
10948;BME280;5526;42.070;24.752;2022-12-31T00:23:54;100073.44;;;5.76;100.00
10948;BME280;5526;42.070;24.752;2022-12-31T00:26:24;100051.50;;;5.58;100.00
10948;BME280;5526;42.070;24.752;2022-12-31T00:28:55;100057.13;;;5.61;100.00
10948;BME280;5526;42.070;24.752;2022-12-31T00:31:25;100052.13;;;5.66;100.00
10948;BME280;5526;42.070;24.752;2022-12-31T00:33:53;100074.47;;;5.75;100.00
10948;BME280;5526;42.070;24.752;2022-12-31T00:36:23;100047.66;;;5.47;100.00
10948;BME280;5526;42.070;24.752;2022-12-31T00:38:53;100066.59;;;5.62;100.00
10948;BME280;5526;42.070;24.752;2022-12-31T00:41:22;100060.72;;;5.54;100.00
10948;BME280;5526;42.070;24.752;2022-12-31T00:43:50;100048.81;;;5.38;100.00
10948;BME280;5526;42.070;24.752;2022-12-31T00:46:20;100047.06;;;5.11;100.00
10948;BME280;5526;42.070;24.752;2022-12-31T00:48:49;100067.00;;;4.91;100.00
10948;BME280;5526;42.070;24.752;2022-12-31T00:51:19;100073.28;;;4.69;100.00
10948;BME280;5526;42.070;24.752;2022-12-31T00:53:47;100099.47;;;4.61;100.00
10948;BME280;5526;42.070;24.752;2022-12-31T00:56:17;100059.09;;;4.50;100.00
10948;BME280;5526;42.070;24.752;2022-12-31T00:58:46;100103.50;;;4.91;100.00
10948;BME280;5526;42.070;24.752;2022-12-31T01:01:15;100071.22;;;4.64;100.00
10948;BME280;5526;42.070;24.752;2022-12-31T01:03:46;100113.84;;;4.78;100.00
10948;BME280;5526;42.070;24.752;2022-12-31T01:06:15;100091.03;;;4.59;100.00
10948;BME280;5526;42.070;24.752;2022-12-31T01:08:43;100069.19;;;4.60;100.00
10948;BME280;5526;42.070;24.752;2022-12-31T01:11:11;100109.09;;;4.82;100.00
10948;BME280;5526;42.070;24.752;2022-12-31T01:13:48;100082.75;;;4.77;100.00
10948;BME280;5526;42.070;24.752;2022-12-31T01:16:18;100068.38;;;4.87;100.00
10948;BME280;5526;42.070;24.752;2022-12-31T01:18:48;100087.53;;;5.01;100.00
10948;BME280;5526;42.070;24.752;2022-12-31T01:21:17;100085.06;;;4.93;100.00
10948;BME280;5526;42.070;24.752;2022-12-31T01:23:46;100083.78;;;4.54;100.00
10948;BME280;5526;42.070;24.752;2022-12-31T01:26:15;100084.59;;;4.34;100.00
10948;BME280;5526;42.070;24.752;2022-12-31T01:28:43;100071.25;;;4.22;100.00
10948;BME280;5526;42.070;24.752;2022-12-31T01:31:13;100081.06;;;4.41;100.00
10948;BME280;5526;42.070;24.752;2022-12-31T01:33:42;100063.63;;;4.42;100.00
10948;BME280;5526;42.070;24.752;2022-12-31T01:36:12;100062.63;;;4.64;100.00
10948;BME280;5526;42.070;24.752;2022-12-31T01:38:41;100081.84;;;4.91;100.00
10948;BME280;5526;42.070;24.752;2022-12-31T01:41:10;100051.25;;;4.78;100.00
10948;BME280;5526;42.070;24.752;2022-12-31T01:43:44;100056.13;;;4.81;100.00
10948;BME280;5526;42.070;24.752;2022-12-31T01:46:18;100042.00;;;4.69;100.00
10948;BME280;5526;42.070;24.752;2022-12-31T01:48:50;100045.19;;;4.71;100.00
10948;BME280;5526;42.070;24.752;2022-12-31T01:51:20;100087.53;;;5.01;100.00
10948;BME280;5526;42.070;24.752;2022-12-31T01:53:49;100062.97;;;4.89;100.00
10948;BME280;5526;42.070;24.752;2022-12-31T01:56:18;100081.91;;;4.97;100.00
10948;BME280;5526;42.070;24.752;2022-12-31T01:58:50;100126.66;;;5.28;100.00
10948;BME280;5526;42.070;24.752;2022-12-31T02:01:24;100100.72;;;5.20;100.00
10948;BME280;5526;42.070;24.752;2022-12-31T02:03:52;100136.34;;;5.34;100.00
10948;BME280;5526;42.070;24.752;2022-12-31T02:06:26;100094.09;;;5.24;100.00
10948;BME280;5526;42.070;24.752;2022-12-31T02:08:57;100116.25;;;5.35;100.00
10948;BME280;5526;42.070;24.752;2022-12-31T02:11:27;100079.84;;;4.93;100.00
10948;BME280;5526;42.070;24.752;2022-12-31T02:13:57;100108.78;;;4.98;100.00
10948;BME280;5526;42.070;24.752;2022-12-31T02:16:33;100098.25;;;4.85;100.00
10948;BME280;5526;42.070;24.752;2022-12-31T02:19:23;100119.56;;;4.88;100.00
10948;BME280;5526;42.070;24.752;2022-12-31T02:22:03;100082.31;;;4.73;100.00
10948;BME280;5526;42.070;24.752;2022-12-31T02:25:06;100128.34;;;5.08;100.00
10948;BME280;5526;42.070;24.752;2022-12-31T02:27:48;100067.69;;;4.72;100.00
10948;BME280;5526;42.070;24.752;2022-12-31T02:30:21;100054.31;;;4.82;100.00
10948;BME280;5526;42.070;24.752;2022-12-31T02:33:00;100036.84;;;4.82;100.00
10948;BME280;5526;42.070;24.752;2022-12-31T02:35:35;100076.13;;;5.02;100.00
10948;BME280;5526;42.070;24.752;2022-12-31T02:38:07;100067.66;;;5.00;100.00
10948;BME280;5526;42.070;24.752;2022-12-31T02:40:38;100094.66;;;4.86;100.00
10948;BME280;5526;42.070;24.752;2022-12-31T02:43:06;100106.97;;;4.98;100.00
10948;BME280;5526;42.070;24.752;2022-12-31T02:45:37;100071.53;;;4.76;100.00
10948;BME280;5526;42.070;24.752;2022-12-31T02:48:31;100054.56;;;4.65;100.00
10948;BME280;5526;42.070;24.752;2022-12-31T02:51:22;100068.47;;;4.72;100.00
10948;BME280;5526;42.070;24.752;2022-12-31T02:54:17;100051.19;;;4.65;100.00
10948;BME280;5526;42.070;24.752;2022-12-31T02:56:53;100052.41;;;4.69;100.00
10948;BME280;5526;42.070;24.752;2022-12-31T02:59:29;100122.97;;;5.16;100.00
10948;BME280;5526;42.070;24.752;2022-12-31T03:02:19;100089.50;;;4.92;100.00
10948;BME280;5526;42.070;24.752;2022-12-31T03:04:51;100086.16;;;4.77;100.00
10948;BME280;5526;42.070;24.752;2022-12-31T03:07:21;100125.47;;;4.76;100.00
10948;BME280;5526;42.070;24.752;2022-12-31T03:09:50;100061.56;;;4.37;100.00
10948;BME280;5526;42.070;24.752;2022-12-31T03:12:20;100088.53;;;4.72;100.00
10948;BME280;5526;42.070;24.752;2022-12-31T03:15:03;100092.84;;;4.58;100.00
10948;BME280;5526;42.070;24.752;2022-12-31T03:17:34;100145.31;;;4.98;100.00
10948;BME280;5526;42.070;24.752;2022-12-31T03:20:02;100134.44;;;4.94;100.00
10948;BME280;5526;42.070;24.752;2022-12-31T03:22:47;100134.75;;;4.85;100.00
10948;BME280;5526;42.070;24.752;2022-12-31T03:25:17;100128.81;;;4.91;100.00
10948;BME280;5526;42.070;24.752;2022-12-31T03:27:59;100123.13;;;4.87;100.00
10948;BME280;5526;42.070;24.752;2022-12-31T03:30:28;100095.78;;;4.77;100.00
10948;BME280;5526;42.070;24.752;2022-12-31T03:32:57;100134.75;;;5.06;100.00
10948;BME280;5526;42.070;24.752;2022-12-31T03:35:30;100150.28;;;5.20;100.00
10948;BME280;5526;42.070;24.752;2022-12-31T03:37:59;100100.09;;;4.91;100.00
10948;BME280;5526;42.070;24.752;2022-12-31T03:40:29;100153.50;;;5.22;100.00
10948;BME280;5526;42.070;24.752;2022-12-31T03:42:57;100089.69;;;4.69;100.00
10948;BME280;5526;42.070;24.752;2022-12-31T03:45:25;100121.56;;;4.93;100.00
10948;BME280;5526;42.070;24.752;2022-12-31T03:47:53;100117.91;;;4.87;100.00
10948;BME280;5526;42.070;24.752;2022-12-31T03:50:22;100126.06;;;4.99;100.00
10948;BME280;5526;42.070;24.752;2022-12-31T03:52:50;100120.50;;;5.08;100.00
10948;BME280;5526;42.070;24.752;2022-12-31T03:55:18;100110.00;;;4.95;100.00
10948;BME280;5526;42.070;24.752;2022-12-31T03:57:46;100143.22;;;5.14;100.00
10948;BME280;5526;42.070;24.752;2022-12-31T04:00:15;100146.31;;;5.24;100.00
10948;BME280;5526;42.070;24.752;2022-12-31T04:02:44;100097.97;;;5.01;100.00
10948;BME280;5526;42.070;24.752;2022-12-31T04:05:13;100100.00;;;5.05;100.00
10948;BME280;5526;42.070;24.752;2022-12-31T04:07:43;100118.19;;;5.26;100.00
10948;BME280;5526;42.070;24.752;2022-12-31T04:10:14;100119.47;;;5.37;100.00
10948;BME280;5526;42.070;24.752;2022-12-31T04:12:42;100101.16;;;5.30;100.00
10948;BME280;5526;42.070;24.752;2022-12-31T04:15:14;100110.25;;;5.34;100.00
10948;BME280;5526;42.070;24.752;2022-12-31T04:17:42;100095.75;;;5.32;100.00
10948;BME280;5526;42.070;24.752;2022-12-31T04:20:11;100100.22;;;5.38;100.00
10948;BME280;5526;42.070;24.752;2022-12-31T04:22:39;100155.59;;;5.67;100.00
10948;BME280;5526;42.070;24.752;2022-12-31T04:25:09;100084.03;;;5.21;100.00
10948;BME280;5526;42.070;24.752;2022-12-31T04:27:38;100100.81;;;5.06;100.00
10948;BME280;5526;42.070;24.752;2022-12-31T04:30:09;100087.53;;;5.01;100.00
10948;BME280;5526;42.070;24.752;2022-12-31T04:32:37;100129.34;;;5.07;100.00
10948;BME280;5526;42.070;24.752;2022-12-31T04:35:07;100154.66;;;5.13;100.00
10948;BME280;5526;42.070;24.752;2022-12-31T04:37:35;100101.31;;;4.67;100.00
10948;BME280;5526;42.070;24.752;2022-12-31T04:40:03;100102.97;;;4.68;100.00
10948;BME280;5526;42.070;24.752;2022-12-31T04:42:32;100107.91;;;4.63;100.00
10948;BME280;5526;42.070;24.752;2022-12-31T04:45:00;100150.84;;;4.88;100.00
10948;BME280;5526;42.070;24.752;2022-12-31T04:47:28;100177.03;;;5.01;100.00
10948;BME280;5526;42.070;24.752;2022-12-31T04:49:56;100162.16;;;4.95;100.00
10948;BME280;5526;42.070;24.752;2022-12-31T04:52:24;100126.22;;;4.69;100.00
10948;BME280;5526;42.070;24.752;2022-12-31T04:54:52;100120.19;;;4.69;100.00
10948;BME280;5526;42.070;24.752;2022-12-31T04:57:20;100154.31;;;4.95;100.00
10948;BME280;5526;42.070;24.752;2022-12-31T04:59:49;100148.34;;;5.01;100.00
10948;BME280;5526;42.070;24.752;2022-12-31T05:02:17;100164.47;;;5.11;100.00
10948;BME280;5526;42.070;24.752;2022-12-31T05:04:45;100173.91;;;5.12;100.00
10948;BME280;5526;42.070;24.752;2022-12-31T05:07:13;100193.19;;;5.11;100.00
10948;BME280;5526;42.070;24.752;2022-12-31T05:09:41;100162.72;;;4.91;100.00
10948;BME280;5526;42.070;24.752;2022-12-31T05:12:09;100142.41;;;4.86;100.00
10948;BME280;5526;42.070;24.752;2022-12-31T05:14:37;100126.88;;;4.78;100.00
10948;BME280;5526;42.070;24.752;2022-12-31T05:17:06;100190.63;;;5.18;100.00
10948;BME280;5526;42.070;24.752;2022-12-31T05:19:34;100157.34;;;4.99;100.00
10948;BME280;5526;42.070;24.752;2022-12-31T05:22:02;100192.13;;;5.33;100.00
10948;BME280;5526;42.070;24.752;2022-12-31T05:24:47;100147.78;;;5.06;100.00
10948;BME280;5526;42.070;24.752;2022-12-31T05:27:17;100215.31;;;5.49;100.00
10948;BME280;5526;42.070;24.752;2022-12-31T05:29:48;100145.66;;;5.22;100.00
10948;BME280;5526;42.070;24.752;2022-12-31T05:32:18;100170.94;;;5.49;100.00
10948;BME280;5526;42.070;24.752;2022-12-31T05:34:46;100165.31;;;5.46;100.00
10948;BME280;5526;42.070;24.752;2022-12-31T05:37:14;100143.16;;;5.35;100.00
10948;BME280;5526;42.070;24.752;2022-12-31T05:39:42;100205.69;;;5.77;100.00
10948;BME280;5526;42.070;24.752;2022-12-31T05:42:10;100204.34;;;5.88;100.00
10948;BME280;5526;42.070;24.752;2022-12-31T05:44:38;100169.06;;;5.71;100.00
10948;BME280;5526;42.070;24.752;2022-12-31T05:47:06;100185.03;;;5.82;100.00
10948;BME280;5526;42.070;24.752;2022-12-31T05:49:35;100227.78;;;6.15;100.00
10948;BME280;5526;42.070;24.752;2022-12-31T05:52:03;100177.19;;;5.82;100.00
10948;BME280;5526;42.070;24.752;2022-12-31T05:54:31;100164.47;;;5.79;100.00
10948;BME280;5526;42.070;24.752;2022-12-31T05:56:59;100178.03;;;5.89;100.00
10948;BME280;5526;42.070;24.752;2022-12-31T05:59:27;100183.28;;;5.96;100.00
10948;BME280;5526;42.070;24.752;2022-12-31T06:01:55;100195.75;;;6.00;100.00
10948;BME280;5526;42.070;24.752;2022-12-31T06:04:23;100197.03;;;6.11;100.00
10948;BME280;5526;42.070;24.752;2022-12-31T06:06:53;100226.66;;;6.37;100.00
10948;BME280;5526;42.070;24.752;2022-12-31T06:09:21;100218.63;;;6.39;100.00
10948;BME280;5526;42.070;24.752;2022-12-31T06:11:49;100186.22;;;6.27;100.00
10948;BME280;5526;42.070;24.752;2022-12-31T06:14:17;100218.66;;;6.45;100.00
10948;BME280;5526;42.070;24.752;2022-12-31T06:16:45;100177.56;;;6.26;100.00
10948;BME280;5526;42.070;24.752;2022-12-31T06:19:13;100197.09;;;6.43;100.00
10948;BME280;5526;42.070;24.752;2022-12-31T06:21:41;100226.13;;;6.61;100.00
10948;BME280;5526;42.070;24.752;2022-12-31T06:24:10;100232.38;;;6.67;100.00
10948;BME280;5526;42.070;24.752;2022-12-31T06:26:38;100182.81;;;6.39;100.00
10948;BME280;5526;42.070;24.752;2022-12-31T06:29:06;100200.50;;;6.24;100.00
10948;BME280;5526;42.070;24.752;2022-12-31T06:31:35;100249.28;;;6.64;100.00
10948;BME280;5526;42.070;24.752;2022-12-31T06:34:03;100210.16;;;6.30;100.00
10948;BME280;5526;42.070;24.752;2022-12-31T06:36:31;100239.19;;;6.55;100.00
10948;BME280;5526;42.070;24.752;2022-12-31T06:38:59;100250.69;;;6.67;100.00
10948;BME280;5526;42.070;24.752;2022-12-31T06:41:30;100252.94;;;6.76;100.00
10948;BME280;5526;42.070;24.752;2022-12-31T06:43:58;100216.25;;;6.57;100.00
10948;BME280;5526;42.070;24.752;2022-12-31T06:46:26;100233.81;;;6.82;100.00
10948;BME280;5526;42.070;24.752;2022-12-31T06:48:54;100274.31;;;7.12;100.00
10948;BME280;5526;42.070;24.752;2022-12-31T06:51:22;100265.47;;;7.13;100.00
10948;BME280;5526;42.070;24.752;2022-12-31T06:53:50;100232.25;;;7.01;100.00
10948;BME280;5526;42.070;24.752;2022-12-31T06:56:20;100264.25;;;7.09;100.00
10948;BME280;5526;42.070;24.752;2022-12-31T06:58:52;100254.41;;;6.32;100.00
10948;BME280;5526;42.070;24.752;2022-12-31T07:01:31;100238.31;;;5.88;100.00
10948;BME280;5526;42.070;24.752;2022-12-31T07:04:11;100238.66;;;5.57;100.00
10948;BME280;5526;42.070;24.752;2022-12-31T07:06:49;100289.28;;;6.11;100.00
10948;BME280;5526;42.070;24.752;2022-12-31T07:09:23;100254.28;;;6.12;100.00
10948;BME280;5526;42.070;24.752;2022-12-31T07:11:59;100299.53;;;6.47;100.00
10948;BME280;5526;42.070;24.752;2022-12-31T07:14:36;100233.28;;;6.27;100.00
10948;BME280;5526;42.070;24.752;2022-12-31T07:17:09;100249.22;;;6.51;100.00
10948;BME280;5526;42.070;24.752;2022-12-31T07:19:51;100276.28;;;6.84;100.00
10948;BME280;5526;42.070;24.752;2022-12-31T07:22:23;100226.97;;;6.75;100.00
10948;BME280;5526;42.070;24.752;2022-12-31T07:24:51;100280.19;;;7.27;100.00
10948;BME280;5526;42.070;24.752;2022-12-31T07:27:41;100292.88;;;7.50;100.00
10948;BME280;5526;42.070;24.752;2022-12-31T07:30:16;100298.72;;;7.71;100.00
10948;BME280;5526;42.070;24.752;2022-12-31T07:33:10;100252.53;;;7.77;100.00
10948;BME280;5526;42.070;24.752;2022-12-31T07:35:50;100252.72;;;7.88;100.00
10948;BME280;5526;42.070;24.752;2022-12-31T07:38:28;100252.47;;;8.09;100.00
10948;BME280;5526;42.070;24.752;2022-12-31T07:41:06;100280.63;;;8.40;100.00
10948;BME280;5526;42.070;24.752;2022-12-31T07:43:49;100259.91;;;8.25;100.00
10948;BME280;5526;42.070;24.752;2022-12-31T07:46:27;100280.81;;;8.51;100.00
10948;BME280;5526;42.070;24.752;2022-12-31T07:48:58;100307.56;;;8.66;100.00
10948;BME280;5526;42.070;24.752;2022-12-31T07:51:26;100324.78;;;8.93;100.00
10948;BME280;5526;42.070;24.752;2022-12-31T07:53:54;100319.28;;;9.08;100.00
10948;BME280;5526;42.070;24.752;2022-12-31T07:56:23;100304.56;;;9.01;100.00
10948;BME280;5526;42.070;24.752;2022-12-31T07:59:07;100324.66;;;9.20;100.00
10948;BME280;5526;42.070;24.752;2022-12-31T08:01:46;100282.31;;;9.03;100.00
10948;BME280;5526;42.070;24.752;2022-12-31T08:04:22;100331.84;;;9.31;100.00
10948;BME280;5526;42.070;24.752;2022-12-31T08:07:00;100306.09;;;8.83;100.00
10948;BME280;5526;42.070;24.752;2022-12-31T08:09:39;100304.16;;;9.04;100.00
10948;BME280;5526;42.070;24.752;2022-12-31T08:12:09;100308.28;;;9.18;100.00
10948;BME280;5526;42.070;24.752;2022-12-31T08:14:42;100273.91;;;8.95;100.00
10948;BME280;5526;42.070;24.752;2022-12-31T08:17:14;100326.75;;;9.36;100.00
10948;BME280;5526;42.070;24.752;2022-12-31T08:19:43;100338.06;;;9.67;100.00
10948;BME280;5526;42.070;24.752;2022-12-31T08:22:35;100281.34;;;9.53;100.00
10948;BME280;5526;42.070;24.752;2022-12-31T08:25:14;100326.53;;;10.11;99.83
10948;BME280;5526;42.070;24.752;2022-12-31T08:27:49;100349.59;;;10.15;96.96
10948;BME280;5526;42.070;24.752;2022-12-31T08:30:20;100346.00;;;10.10;98.06
10948;BME280;5526;42.070;24.752;2022-12-31T08:33:01;100320.50;;;10.04;97.01
10948;BME280;5526;42.070;24.752;2022-12-31T08:35:46;100317.88;;;9.86;96.69
10948;BME280;5526;42.070;24.752;2022-12-31T08:38:24;100333.19;;;10.13;93.83
10948;BME280;5526;42.070;24.752;2022-12-31T08:40:59;100343.97;;;10.30;95.08
10948;BME280;5526;42.070;24.752;2022-12-31T08:43:41;100356.84;;;10.56;92.36
10948;BME280;5526;42.070;24.752;2022-12-31T08:46:16;100292.53;;;10.16;91.42
10948;BME280;5526;42.070;24.752;2022-12-31T08:48:48;100341.56;;;10.46;92.38
10948;BME280;5526;42.070;24.752;2022-12-31T08:51:19;100317.44;;;10.31;91.28
10948;BME280;5526;42.070;24.752;2022-12-31T08:53:49;100299.88;;;10.43;91.19
10948;BME280;5526;42.070;24.752;2022-12-31T08:56:25;100325.91;;;10.69;89.91
10948;BME280;5526;42.070;24.752;2022-12-31T08:59:03;100293.53;;;10.51;89.93
10948;BME280;5526;42.070;24.752;2022-12-31T09:01:45;100318.56;;;10.89;89.53
10948;BME280;5526;42.070;24.752;2022-12-31T09:04:22;100299.81;;;11.09;88.84
10948;BME280;5526;42.070;24.752;2022-12-31T09:06:55;100291.63;;;11.28;88.69
10948;BME280;5526;42.070;24.752;2022-12-31T09:09:34;100280.44;;;11.33;86.19
10948;BME280;5526;42.070;24.752;2022-12-31T09:12:11;100279.41;;;11.34;86.43
10948;BME280;5526;42.070;24.752;2022-12-31T09:14:46;100283.31;;;11.54;86.51
10948;BME280;5526;42.070;24.752;2022-12-31T09:17:38;100298.94;;;11.67;84.01
10948;BME280;5526;42.070;24.752;2022-12-31T09:20:18;100269.25;;;11.60;84.45
10948;BME280;5526;42.070;24.752;2022-12-31T09:22:48;100290.56;;;11.82;85.07
10948;BME280;5526;42.070;24.752;2022-12-31T09:25:18;100272.22;;;11.87;84.70
10948;BME280;5526;42.070;24.752;2022-12-31T09:27:52;100262.13;;;11.72;84.73
10948;BME280;5526;42.070;24.752;2022-12-31T09:30:25;100260.06;;;11.86;85.11
10948;BME280;5526;42.070;24.752;2022-12-31T09:32:58;100245.47;;;11.95;84.89
10948;BME280;5526;42.070;24.752;2022-12-31T09:35:35;100277.56;;;12.15;84.89
10948;BME280;5526;42.070;24.752;2022-12-31T09:38:09;100233.78;;;11.91;83.19
10948;BME280;5526;42.070;24.752;2022-12-31T09:41:04;100296.63;;;12.17;84.91
10948;BME280;5526;42.070;24.752;2022-12-31T09:47:13;100242.25;;;12.16;82.28
10948;BME280;5526;42.070;24.752;2022-12-31T09:50:20;100248.91;;;12.18;83.35
10948;BME280;5526;42.070;24.752;2022-12-31T09:56:13;100229.59;;;12.57;82.76
10948;BME280;5526;42.070;24.752;2022-12-31T09:58:52;100258.81;;;12.67;82.05
10948;BME280;5526;42.070;24.752;2022-12-31T10:01:33;100237.69;;;12.67;82.29
10948;BME280;5526;42.070;24.752;2022-12-31T10:04:26;100267.53;;;13.08;80.19
10948;BME280;5526;42.070;24.752;2022-12-31T10:07:07;100252.84;;;13.00;81.87
10948;BME280;5526;42.070;24.752;2022-12-31T10:09:54;100244.13;;;13.00;80.16
10948;BME280;5526;42.070;24.752;2022-12-31T10:12:40;100207.75;;;13.07;80.43
10948;BME280;5526;42.070;24.752;2022-12-31T10:15:40;100202.31;;;13.84;76.63
10948;BME280;5526;42.070;24.752;2022-12-31T10:18:23;100189.41;;;13.50;77.33
10948;BME280;5526;42.070;24.752;2022-12-31T10:21:04;100194.53;;;13.56;77.90
10948;BME280;5526;42.070;24.752;2022-12-31T10:24:01;100242.31;;;13.88;77.02
10948;BME280;5526;42.070;24.752;2022-12-31T10:26:51;100192.66;;;13.73;76.80
10948;BME280;5526;42.070;24.752;2022-12-31T10:29:28;100216.25;;;13.96;76.82
10948;BME280;5526;42.070;24.752;2022-12-31T10:32:10;100223.06;;;13.92;76.81
10948;BME280;5526;42.070;24.752;2022-12-31T10:34:51;100185.69;;;13.67;75.99
10948;BME280;5526;42.070;24.752;2022-12-31T10:37:23;100238.88;;;15.00;72.42
10948;BME280;5526;42.070;24.752;2022-12-31T10:40:12;100174.09;;;14.11;73.83
10948;BME280;5526;42.070;24.752;2022-12-31T10:46:06;100187.63;;;14.15;74.17
10948;BME280;5526;42.070;24.752;2022-12-31T10:49:01;100228.22;;;14.42;74.73
10948;BME280;5526;42.070;24.752;2022-12-31T10:51:58;100192.28;;;14.08;74.37
10948;BME280;5526;42.070;24.752;2022-12-31T10:55:04;100219.03;;;14.28;74.89
10948;BME280;5526;42.070;24.752;2022-12-31T10:58:07;100180.47;;;14.15;75.50
10948;BME280;5526;42.070;24.752;2022-12-31T11:00:47;100219.78;;;14.45;74.63
10948;BME280;5526;42.070;24.752;2022-12-31T11:06:42;100198.16;;;14.31;73.76
10948;BME280;5526;42.070;24.752;2022-12-31T11:09:50;100139.16;;;14.36;74.82
10948;BME280;5526;42.070;24.752;2022-12-31T11:12:39;100171.53;;;14.69;73.82
10948;BME280;5526;42.070;24.752;2022-12-31T11:15:23;100151.88;;;14.92;73.48
10948;BME280;5526;42.070;24.752;2022-12-31T11:18:05;100180.75;;;15.25;72.42
10948;BME280;5526;42.070;24.752;2022-12-31T11:20:51;100185.53;;;15.28;71.55
10948;BME280;5526;42.070;24.752;2022-12-31T11:23:34;100142.09;;;14.97;70.35
10948;BME280;5526;42.070;24.752;2022-12-31T11:26:12;100163.97;;;15.14;71.47
10948;BME280;5526;42.070;24.752;2022-12-31T11:29:02;100121.00;;;14.76;70.19
10948;BME280;5526;42.070;24.752;2022-12-31T11:31:53;100171.47;;;15.27;69.93
10948;BME280;5526;42.070;24.752;2022-12-31T11:37:48;100138.56;;;15.23;69.08
10948;BME280;5526;42.070;24.752;2022-12-31T11:40:38;100165.06;;;15.60;65.80
10948;BME280;5526;42.070;24.752;2022-12-31T11:43:18;100145.19;;;15.62;63.45
10948;BME280;5526;42.070;24.752;2022-12-31T11:46:00;100123.34;;;15.50;62.62
10948;BME280;5526;42.070;24.752;2022-12-31T11:48:35;100166.47;;;15.72;62.62
10948;BME280;5526;42.070;24.752;2022-12-31T11:54:39;100118.69;;;15.67;61.42
10948;BME280;5526;42.070;24.752;2022-12-31T11:57:18;100134.16;;;15.90;60.67
10948;BME280;5526;42.070;24.752;2022-12-31T11:59:52;100126.75;;;15.92;60.89
10948;BME280;5526;42.070;24.752;2022-12-31T12:02:26;100125.16;;;15.91;59.79
10948;BME280;5526;42.070;24.752;2022-12-31T12:04:56;100133.69;;;16.03;60.50
10948;BME280;5526;42.070;24.752;2022-12-31T12:07:26;100131.84;;;16.19;59.84
10948;BME280;5526;42.070;24.752;2022-12-31T12:10:00;100119.13;;;16.21;58.81
10948;BME280;5526;42.070;24.752;2022-12-31T12:12:38;100157.66;;;16.33;58.26
10948;BME280;5526;42.070;24.752;2022-12-31T12:15:07;100139.31;;;16.17;58.98
10948;BME280;5526;42.070;24.752;2022-12-31T12:17:36;100154.44;;;16.21;59.39
10948;BME280;5526;42.070;24.752;2022-12-31T12:20:14;100114.03;;;15.99;58.09
10948;BME280;5526;42.070;24.752;2022-12-31T12:22:48;100167.75;;;16.26;58.94
10948;BME280;5526;42.070;24.752;2022-12-31T12:25:20;100129.47;;;16.17;58.83
10948;BME280;5526;42.070;24.752;2022-12-31T12:27:48;100134.50;;;16.19;59.26
10948;BME280;5526;42.070;24.752;2022-12-31T12:30:19;100121.50;;;16.17;58.92
10948;BME280;5526;42.070;24.752;2022-12-31T12:32:55;100164.66;;;16.54;58.61
10948;BME280;5526;42.070;24.752;2022-12-31T12:35:25;100114.63;;;16.36;58.51
10948;BME280;5526;42.070;24.752;2022-12-31T12:38:03;100152.69;;;16.52;57.51
10948;BME280;5526;42.070;24.752;2022-12-31T12:40:34;100164.13;;;16.57;58.16
10948;BME280;5526;42.070;24.752;2022-12-31T12:43:02;100110.34;;;16.25;58.65
10948;BME280;5526;42.070;24.752;2022-12-31T12:45:40;100121.81;;;16.36;57.65
10948;BME280;5526;42.070;24.752;2022-12-31T12:48:16;100127.69;;;16.43;57.21
10948;BME280;5526;42.070;24.752;2022-12-31T12:50:46;100145.25;;;16.54;57.79
10948;BME280;5526;42.070;24.752;2022-12-31T12:53:23;100111.50;;;16.49;57.44
10948;BME280;5526;42.070;24.752;2022-12-31T12:56:05;100161.47;;;16.67;56.79
10948;BME280;5526;42.070;24.752;2022-12-31T12:58:51;100183.03;;;16.71;56.88
10948;BME280;5526;42.070;24.752;2022-12-31T13:01:27;100155.09;;;16.58;56.55
10948;BME280;5526;42.070;24.752;2022-12-31T13:07:22;100156.69;;;16.64;56.82
10948;BME280;5526;42.070;24.752;2022-12-31T13:10:06;100172.38;;;17.21;55.16
10948;BME280;5526;42.070;24.752;2022-12-31T13:12:45;100159.66;;;16.83;56.16
10948;BME280;5526;42.070;24.752;2022-12-31T13:15:17;100154.84;;;16.80;56.38
10948;BME280;5526;42.070;24.752;2022-12-31T13:17:58;100187.81;;;16.84;55.46
10948;BME280;5526;42.070;24.752;2022-12-31T13:20:33;100167.09;;;16.71;56.33
10948;BME280;5526;42.070;24.752;2022-12-31T13:23:10;100135.41;;;16.54;56.41
10948;BME280;5526;42.070;24.752;2022-12-31T13:25:52;100133.53;;;16.50;56.60
10948;BME280;5526;42.070;24.752;2022-12-31T13:28:25;100183.28;;;16.74;56.36
10948;BME280;5526;42.070;24.752;2022-12-31T13:30:57;100141.78;;;16.48;56.46
10948;BME280;5526;42.070;24.752;2022-12-31T13:33:28;100135.94;;;16.46;56.73
10948;BME280;5526;42.070;24.752;2022-12-31T13:36:00;100199.22;;;16.64;57.07
10948;BME280;5526;42.070;24.752;2022-12-31T13:38:33;100169.72;;;16.56;57.04
10948;BME280;5526;42.070;24.752;2022-12-31T13:41:04;100156.13;;;16.47;56.81
10948;BME280;5526;42.070;24.752;2022-12-31T13:43:42;100139.06;;;16.33;57.23
10948;BME280;5526;42.070;24.752;2022-12-31T13:46:16;100143.59;;;16.33;57.34
10948;BME280;5526;42.070;24.752;2022-12-31T13:48:49;100185.63;;;16.51;57.65
10948;BME280;5526;42.070;24.752;2022-12-31T13:51:28;100176.28;;;16.38;58.00